Time,TemperatureF,DewpointF,PressureIn,WindDirection,WindDirectionDegrees,WindSpeedMPH,WindSpeedGustMPH,Humidity,HourlyPrecipIn,Conditions,Clouds,dailyrainin,SoftwareType,DateUTC
2013-08-08 00:09:00,67.8,67.2,30.00,WSW,247,0.0,-999.0,98,-99.99,,,0.00,Acu-Link.com,2013-08-08 04:09:00,
2013-08-08 00:24:00,67.6,67.0,30.00,East,90,0.0,-999.0,98,-99.99,,,0.00,Acu-Link.com,2013-08-08 04:24:00,
2013-08-08 00:39:00,67.8,67.2,29.99,SE,135,1.7,-999.0,98,-99.99,,,0.00,Acu-Link.com,2013-08-08 04:39:00,
2013-08-08 00:54:00,67.6,67.0,29.99,ESE,112,0.0,-999.0,98,-99.99,,,0.00,Acu-Link.com,2013-08-08 04:54:00,
2013-08-08 01:10:00,67.8,67.2,29.99,SSW,202,2.7,-999.0,98,-99.99,,,0.00,Acu-Link.com,2013-08-08 05:10:00,
2013-08-08 01:25:00,68.0,67.4,29.99,SSW,202,3.2,-999.0,98,-99.99,,,0.00,Acu-Link.com,2013-08-08 05:25:00,
2013-08-08 01:40:00,68.0,67.4,29.98,NE,45,1.7,-999.0,98,-99.99,,,0.00,Acu-Link.com,2013-08-08 05:40:00,
2013-08-08 01:55:00,68.2,67.6,29.98,SE,135,1.7,-999.0,98,-99.99,,,0.00,Acu-Link.com,2013-08-08 05:55:00,
2013-08-08 02:10:00,68.2,67.6,29.98,SE,135,2.2,-999.0,98,-99.99,,,0.00,Acu-Link.com,2013-08-08 06:10:00,
2013-08-08 02:25:00,68.2,67.6,29.98,ESE,112,2.7,-999.0,98,-99.99,,,0.00,Acu-Link.com,2013-08-08 06:25:00,
2013-08-08 02:40:00,68.4,67.8,29.97,ESE,112,1.1,-999.0,98,-99.99,,,0.00,Acu-Link.com,2013-08-08 06:40:00,
2013-08-08 02:55:00,68.4,67.8,29.97,South,180,5.3,-999.0,98,-99.99,,,0.00,Acu-Link.com,2013-08-08 06:55:00,
2013-08-08 03:10:00,68.5,67.9,29.97,West,270,2.7,-999.0,98,-99.99,,,0.00,Acu-Link.com,2013-08-08 07:10:00,
2013-08-08 03:26:00,68.5,67.9,29.97,West,270,2.2,-999.0,98,-99.99,,,0.00,Acu-Link.com,2013-08-08 07:26:00,
2013-08-08 03:41:00,68.4,67.8,29.97,ESE,112,2.2,-999.0,98,-99.99,,,0.00,Acu-Link.com,2013-08-08 07:41:00,
2013-08-08 03:56:00,68.0,67.4,29.97,WSW,247,1.1,-999.0,98,-99.99,,,0.00,Acu-Link.com,2013-08-08 07:56:00,
2013-08-08 04:11:00,67.8,67.2,29.97,ENE,67,3.2,-999.0,98,-99.99,,,0.00,Acu-Link.com,2013-08-08 08:11:00,
2013-08-08 04:26:00,67.8,67.2,29.97,NNE,22,0.0,-999.0,98,-99.99,,,0.00,Acu-Link.com,2013-08-08 08:26:00,
2013-08-08 04:41:00,67.8,67.2,29.97,SSE,157,0.0,-999.0,98,-99.99,,,0.00,Acu-Link.com,2013-08-08 08:41:00,
2013-08-08 04:56:00,67.8,67.2,29.96,West,270,5.3,-999.0,98,-99.99,,,0.00,Acu-Link.com,2013-08-08 08:56:00,
2013-08-08 05:12:00,67.8,67.2,29.95,WNW,292,1.7,-999.0,98,-99.99,,,0.00,Acu-Link.com,2013-08-08 09:12:00,
2013-08-08 05:27:00,67.8,67.2,29.96,ESE,112,0.0,-999.0,98,-99.99,,,0.00,Acu-Link.com,2013-08-08 09:27:00,
2013-08-08 05:42:00,67.8,67.2,29.96,NW,315,1.1,-999.0,98,-99.99,,,0.00,Acu-Link.com,2013-08-08 09:42:00,
2013-08-08 05:57:00,68.0,67.4,29.97,NE,45,3.7,-999.0,98,-99.99,,,0.00,Acu-Link.com,2013-08-08 09:57:00,
2013-08-08 06:12:00,68.2,67.6,29.97,West,270,0.0,-999.0,98,-99.99,,,0.00,Acu-Link.com,2013-08-08 10:12:00,
2013-08-08 06:27:00,68.2,67.6,29.98,West,270,1.1,-999.0,98,-99.99,,,0.00,Acu-Link.com,2013-08-08 10:27:00,
2013-08-08 06:42:00,68.2,67.6,29.97,NNW,337,1.1,-999.0,98,-99.99,,,0.00,Acu-Link.com,2013-08-08 10:42:00,
2013-08-08 06:57:00,68.2,67.6,29.98,South,180,0.0,-999.0,98,-99.99,,,0.00,Acu-Link.com,2013-08-08 10:57:00,
2013-08-08 07:12:00,68.4,67.8,29.98,ESE,112,1.7,-999.0,98,-99.99,,,0.00,Acu-Link.com,2013-08-08 11:12:00,
2013-08-08 07:28:00,68.4,67.8,29.98,SW,225,1.1,-999.0,98,-99.99,,,0.00,Acu-Link.com,2013-08-08 11:28:00,
2013-08-08 07:43:00,68.4,67.8,29.97,WNW,292,0.0,-999.0,98,-99.99,,,0.00,Acu-Link.com,2013-08-08 11:43:00,
2013-08-08 07:58:00,68.4,67.8,29.97,WSW,247,0.0,-999.0,98,-99.99,,,0.00,Acu-Link.com,2013-08-08 11:58:00,
2013-08-08 08:13:00,68.5,67.9,29.98,NW,315,0.0,-999.0,98,-99.99,,,0.00,Acu-Link.com,2013-08-08 12:13:00,
2013-08-08 08:28:00,68.7,68.1,29.98,WSW,247,3.7,-999.0,98,-99.99,,,0.00,Acu-Link.com,2013-08-08 12:28:00,
2013-08-08 08:43:00,69.3,68.7,29.98,WSW,247,1.7,-999.0,98,-99.99,,,0.00,Acu-Link.com,2013-08-08 12:43:00,
2013-08-08 08:58:00,69.1,68.5,29.99,West,270,1.7,-999.0,98,-99.99,,,0.00,Acu-Link.com,2013-08-08 12:58:00,
2013-08-08 09:13:00,69.3,68.7,29.98,WSW,247,2.7,-999.0,98,-99.99,,,0.00,Acu-Link.com,2013-08-08 13:13:00,
2013-08-08 09:29:00,69.3,68.7,29.98,East,90,0.0,-999.0,98,-99.99,,,0.00,Acu-Link.com,2013-08-08 13:29:00,
2013-08-08 09:44:00,69.6,69.0,29.99,ESE,112,2.2,-999.0,98,-99.99,,,0.00,Acu-Link.com,2013-08-08 13:44:00,
2013-08-08 09:59:00,70.3,69.7,29.99,West,270,1.7,-999.0,98,-99.99,,,0.00,Acu-Link.com,2013-08-08 13:59:00,
2013-08-08 10:14:00,70.3,69.7,29.99,West,270,1.1,-999.0,98,-99.99,,,0.00,Acu-Link.com,2013-08-08 14:14:00,
2013-08-08 10:29:00,70.3,69.7,29.98,SE,135,2.7,-999.0,98,-99.99,,,0.00,Acu-Link.com,2013-08-08 14:29:00,
2013-08-08 10:44:00,70.7,70.1,29.98,West,270,2.2,-999.0,98,-99.99,,,0.00,Acu-Link.com,2013-08-08 14:44:00,
2013-08-08 10:59:00,71.4,70.8,29.97,West,270,0.0,-999.0,98,-99.99,,,0.00,Acu-Link.com,2013-08-08 14:59:00,
2013-08-08 11:15:00,73.0,72.4,29.97,ESE,112,1.1,-999.0,98,-99.99,,,0.00,Acu-Link.com,2013-08-08 15:15:00,
2013-08-08 11:30:00,73.2,72.6,29.97,SW,225,2.7,-999.0,98,-99.99,,,0.00,Acu-Link.com,2013-08-08 15:30:00,
2013-08-08 11:45:00,74.1,73.5,29.97,WSW,247,2.2,-999.0,98,-99.99,,,0.00,Acu-Link.com,2013-08-08 15:45:00,
2013-08-08 12:00:00,73.2,72.6,29.97,WNW,292,2.7,-999.0,98,-99.99,,,0.00,Acu-Link.com,2013-08-08 16:00:00,
2013-08-08 12:15:00,75.9,75.3,29.97,WSW,247,3.2,-999.0,98,-99.99,,,0.00,Acu-Link.com,2013-08-08 16:15:00,
2013-08-08 12:30:00,77.2,76.6,29.96,West,270,1.7,-999.0,98,-99.99,,,0.00,Acu-Link.com,2013-08-08 16:30:00,
2013-08-08 12:45:00,76.8,76.2,29.97,West,270,2.2,-999.0,98,-99.99,,,0.00,Acu-Link.com,2013-08-08 16:45:00,
2013-08-08 13:00:00,75.9,75.3,29.97,West,270,0.0,-999.0,98,-99.99,,,0.00,Acu-Link.com,2013-08-08 17:00:00,
2013-08-08 13:15:00,77.7,77.1,29.96,West,270,3.2,-999.0,98,-99.99,,,0.00,Acu-Link.com,2013-08-08 17:15:00,
2013-08-08 13:31:00,78.8,78.2,29.95,West,270,2.2,-999.0,98,-99.99,,,0.00,Acu-Link.com,2013-08-08 17:31:00,
2013-08-08 13:46:00,78.8,78.2,29.95,ESE,112,2.7,-999.0,98,-99.99,,,0.00,Acu-Link.com,2013-08-08 17:46:00,
2013-08-08 14:01:00,79.2,78.6,29.96,West,270,2.2,-999.0,98,-99.99,,,0.00,Acu-Link.com,2013-08-08 18:01:00,
2013-08-08 14:16:00,78.4,77.8,29.96,West,270,3.7,-999.0,98,-99.99,,,0.00,Acu-Link.com,2013-08-08 18:16:00,
2013-08-08 14:31:00,79.5,78.9,29.96,SE,135,1.7,-999.0,98,-99.99,,,0.00,Acu-Link.com,2013-08-08 18:31:00,
2013-08-08 14:46:00,79.7,79.1,29.96,West,270,3.2,-999.0,98,-99.99,,,0.00,Acu-Link.com,2013-08-08 18:46:00,
2013-08-08 15:01:00,78.4,77.8,29.96,West,270,2.2,-999.0,98,-99.99,,,0.00,Acu-Link.com,2013-08-08 19:01:00,
2013-08-08 15:16:00,77.9,77.3,29.96,SSW,202,1.1,-999.0,98,-99.99,,,0.00,Acu-Link.com,2013-08-08 19:16:00,
2013-08-08 15:31:00,78.4,77.8,29.96,West,270,3.2,-999.0,98,-99.99,,,0.00,Acu-Link.com,2013-08-08 19:31:00,
2013-08-08 15:47:00,79.2,78.6,29.96,WNW,292,0.0,-999.0,98,-99.99,,,0.00,Acu-Link.com,2013-08-08 19:47:00,
2013-08-08 16:02:00,77.2,76.6,29.95,ESE,112,2.7,-999.0,98,-99.99,,,0.00,Acu-Link.com,2013-08-08 20:02:00,
2013-08-08 16:17:00,77.9,77.3,29.95,NNE,22,1.7,-999.0,98,-99.99,,,0.00,Acu-Link.com,2013-08-08 20:17:00,
2013-08-08 16:32:00,78.4,77.8,29.94,WNW,292,4.7,-999.0,98,-99.99,,,0.00,Acu-Link.com,2013-08-08 20:32:00,
2013-08-08 16:47:00,77.9,77.3,29.95,NE,45,1.1,-999.0,98,-99.99,,,0.00,Acu-Link.com,2013-08-08 20:47:00,
2013-08-08 17:02:00,77.4,76.8,29.94,South,180,2.7,-999.0,98,-99.99,,,0.00,Acu-Link.com,2013-08-08 21:02:00,
2013-08-08 17:17:00,77.4,76.8,29.95,SSW,202,1.7,-999.0,98,-99.99,,,0.00,Acu-Link.com,2013-08-08 21:17:00,
2013-08-08 17:32:00,77.4,76.8,29.94,ESE,112,1.1,-999.0,98,-99.99,,,0.00,Acu-Link.com,2013-08-08 21:32:00,
2013-08-08 17:47:00,76.6,76.0,29.93,ESE,112,1.1,-999.0,98,-99.99,,,0.00,Acu-Link.com,2013-08-08 21:47:00,
2013-08-08 18:02:00,77.5,76.9,29.94,ENE,67,3.2,-999.0,98,-99.99,,,0.00,Acu-Link.com,2013-08-08 22:02:00,
2013-08-08 18:18:00,77.5,76.9,29.93,West,270,2.7,-999.0,98,-99.99,,,0.00,Acu-Link.com,2013-08-08 22:18:00,
2013-08-08 18:33:00,77.5,76.9,29.93,North,0,2.7,-999.0,98,-99.99,,,0.00,Acu-Link.com,2013-08-08 22:33:00,
2013-08-08 18:48:00,75.7,75.1,29.94,SSE,157,6.3,-999.0,98,-99.99,,,0.00,Acu-Link.com,2013-08-08 22:48:00,
2013-08-08 19:03:00,75.0,74.4,29.95,West,270,3.7,-999.0,98,-99.99,,,0.00,Acu-Link.com,2013-08-08 23:03:00,
2013-08-08 19:18:00,74.7,74.1,29.95,ESE,112,3.7,-999.0,98,-99.99,,,0.00,Acu-Link.com,2013-08-08 23:18:00,
2013-08-08 19:33:00,74.7,74.1,29.95,West,270,0.0,-999.0,98,-99.99,,,0.00,Acu-Link.com,2013-08-08 23:33:00,
2013-08-08 19:48:00,74.1,73.5,29.95,West,270,2.7,-999.0,98,-99.99,,,0.00,Acu-Link.com,2013-08-08 23:48:00,
2013-08-08 20:03:00,73.8,73.2,29.94,SW,225,0.0,-999.0,98,-99.99,,,0.00,Acu-Link.com,2013-08-09 00:03:00,
2013-08-08 20:18:00,73.0,72.4,29.95,SE,135,1.1,-999.0,98,-99.99,,,0.00,Acu-Link.com,2013-08-09 00:18:00,
2013-08-08 20:34:00,72.9,72.3,29.95,SSE,157,0.0,-999.0,98,-99.99,,,0.00,Acu-Link.com,2013-08-09 00:34:00,
2013-08-08 21:19:00,72.1,71.5,29.96,West,270,2.7,-999.0,98,-99.99,,,0.00,Acu-Link.com,2013-08-09 01:19:00,
2013-08-08 21:49:00,71.6,71.0,29.96,West,270,1.7,-999.0,98,-99.99,,,0.00,Acu-Link.com,2013-08-09 01:49:00,
2013-08-08 22:05:00,71.4,70.8,29.96,ESE,112,0.0,-999.0,98,-99.99,,,0.00,Acu-Link.com,2013-08-09 02:05:00,
2013-08-08 22:35:00,71.1,70.5,29.93,NNW,337,0.0,-999.0,98,-99.99,,,0.00,Acu-Link.com,2013-08-09 02:35:00,
2013-08-08 23:20:00,71.1,70.5,29.94,West,270,2.2,-999.0,98,-99.99,,,0.00,Acu-Link.com,2013-08-09 03:20:00,
2013-08-08 23:35:00,71.1,70.5,29.94,ESE,112,0.0,-999.0,98,-99.99,,,0.00,Acu-Link.com,2013-08-09 03:35:00,
2013-08-08 23:51:00,71.1,70.5,29.94,ESE,112,2.7,-999.0,98,-99.99,,,0.00,Acu-Link.com,2013-08-09 03:51:00,